Archival Weather

Randolph Afb

Universal City, Texas (KRND)

Report from: Monday, September 26, 2022 11:55 PM CDT
Current time: Saturday, February 4, 2023 9:58 PM CST

Current weather
Weather history
Weather forecast

Temperature24.0°C (75.2°F)
Dew point5.8°C (42.4°F)
Winds 6 kts (3.1 m/s, 6.9 mph) Northeast (40°)
Visibility10 mi. (16.1 km)
Clouds Sky clear
Altimeter30.08 in.Hg (1019 mB)
Relative humidity31 %
Density altitude1,001 ft. (305 m)
Sea-level pressure101.8 kPa (1018 mB, 30.05 in.Hg)
Remarks Fully automated report
Automated weather observing station with precipitation discriminator
Flight conditions Visual Meteorological Conditions
Raw dataKRND 270455Z AUTO 04006KT 10SM CLR 24/06 A3008 RMK AO2 SLP177 T02400058
An unhandled exception has occurred. See browser dev tools for details. Reload 🗙